sensor_id;sensor_type;location;lat;lon;timestamp;temperature;humidity
23507;DHT22;11930;53.076;18.250;2023-04-06T00:02:20;-1.60;99.90
23507;DHT22;11930;53.076;18.250;2023-04-06T00:04:46;-1.50;99.90
23507;DHT22;11930;53.076;18.250;2023-04-06T00:07:12;-1.60;99.90
23507;DHT22;11930;53.076;18.250;2023-04-06T00:09:38;-1.50;99.90
23507;DHT22;11930;53.076;18.250;2023-04-06T00:12:05;-1.50;99.90
23507;DHT22;11930;53.076;18.250;2023-04-06T00:14:31;-1.50;99.90
23507;DHT22;11930;53.076;18.250;2023-04-06T00:16:57;-1.50;99.90
23507;DHT22;11930;53.076;18.250;2023-04-06T00:19:23;-1.40;99.90
23507;DHT22;11930;53.076;18.250;2023-04-06T00:21:49;-1.40;99.90
23507;DHT22;11930;53.076;18.250;2023-04-06T00:24:16;-1.40;99.90
23507;DHT22;11930;53.076;18.250;2023-04-06T00:26:42;-1.40;99.90
23507;DHT22;11930;53.076;18.250;2023-04-06T00:29:08;-1.40;99.90
23507;DHT22;11930;53.076;18.250;2023-04-06T00:31:34;-1.30;99.90
23507;DHT22;11930;53.076;18.250;2023-04-06T00:34:00;-1.40;99.90
23507;DHT22;11930;53.076;18.250;2023-04-06T00:36:27;-1.40;99.90
23507;DHT22;11930;53.076;18.250;2023-04-06T00:38:53;-1.30;99.90
23507;DHT22;11930;53.076;18.250;2023-04-06T00:41:19;-1.30;99.90
23507;DHT22;11930;53.076;18.250;2023-04-06T00:43:46;-1.30;99.90
23507;DHT22;11930;53.076;18.250;2023-04-06T00:46:12;-1.30;99.90
23507;DHT22;11930;53.076;18.250;2023-04-06T00:48:38;-1.30;99.90
23507;DHT22;11930;53.076;18.250;2023-04-06T00:51:05;-1.20;99.90
23507;DHT22;11930;53.076;18.250;2023-04-06T00:53:31;-1.20;99.90
23507;DHT22;11930;53.076;18.250;2023-04-06T00:55:59;-1.10;99.90
23507;DHT22;11930;53.076;18.250;2023-04-06T00:58:25;-1.20;99.90
23507;DHT22;11930;53.076;18.250;2023-04-06T01:01:00;-1.20;99.90
23507;DHT22;11930;53.076;18.250;2023-04-06T01:03:26;-1.20;99.90
23507;DHT22;11930;53.076;18.250;2023-04-06T01:05:53;-1.20;99.90
23507;DHT22;11930;53.076;18.250;2023-04-06T01:08:27;-1.20;99.90
23507;DHT22;11930;53.076;18.250;2023-04-06T01:11:04;-1.20;99.90
23507;DHT22;11930;53.076;18.250;2023-04-06T01:13:30;-1.20;99.90
23507;DHT22;11930;53.076;18.250;2023-04-06T01:16:03;-1.10;99.90
23507;DHT22;11930;53.076;18.250;2023-04-06T01:18:55;-1.20;99.90
23507;DHT22;11930;53.076;18.250;2023-04-06T01:21:26;-1.20;99.90
23507;DHT22;11930;53.076;18.250;2023-04-06T01:24:05;-1.30;99.90
23507;DHT22;11930;53.076;18.250;2023-04-06T01:26:43;-1.30;99.90
23507;DHT22;11930;53.076;18.250;2023-04-06T01:29:10;-1.40;99.90
23507;DHT22;11930;53.076;18.250;2023-04-06T01:31:38;-1.40;99.90
23507;DHT22;11930;53.076;18.250;2023-04-06T01:34:05;-1.40;99.90
23507;DHT22;11930;53.076;18.250;2023-04-06T01:36:32;-1.50;99.90
23507;DHT22;11930;53.076;18.250;2023-04-06T01:39:16;-1.40;99.90
23507;DHT22;11930;53.076;18.250;2023-04-06T01:41:43;-1.50;99.90
23507;DHT22;11930;53.076;18.250;2023-04-06T01:44:09;-1.60;99.90
23507;DHT22;11930;53.076;18.250;2023-04-06T01:46:35;-1.60;99.90
23507;DHT22;11930;53.076;18.250;2023-04-06T01:49:03;-1.60;99.90
23507;DHT22;11930;53.076;18.250;2023-04-06T01:51:35;-1.60;99.90
23507;DHT22;11930;53.076;18.250;2023-04-06T01:54:03;-1.60;99.90
23507;DHT22;11930;53.076;18.250;2023-04-06T01:56:50;-1.70;99.90
23507;DHT22;11930;53.076;18.250;2023-04-06T01:59:28;-1.70;99.90
23507;DHT22;11930;53.076;18.250;2023-04-06T02:01:55;-1.80;99.90
23507;DHT22;11930;53.076;18.250;2023-04-06T02:04:24;-1.70;99.90
23507;DHT22;11930;53.076;18.250;2023-04-06T02:06:55;-1.80;99.90
23507;DHT22;11930;53.076;18.250;2023-04-06T02:09:24;-1.90;99.90
23507;DHT22;11930;53.076;18.250;2023-04-06T02:11:50;-2.00;99.90
23507;DHT22;11930;53.076;18.250;2023-04-06T02:14:17;-2.00;99.90
23507;DHT22;11930;53.076;18.250;2023-04-06T02:16:49;-2.00;99.90
23507;DHT22;11930;53.076;18.250;2023-04-06T02:19:15;-1.90;99.90
23507;DHT22;11930;53.076;18.250;2023-04-06T02:21:42;-1.90;99.90
23507;DHT22;11930;53.076;18.250;2023-04-06T02:24:09;-1.90;99.90
23507;DHT22;11930;53.076;18.250;2023-04-06T02:26:35;-1.90;99.90
23507;DHT22;11930;53.076;18.250;2023-04-06T02:29:01;-1.90;99.90
23507;DHT22;11930;53.076;18.250;2023-04-06T02:31:28;-1.80;99.90
23507;DHT22;11930;53.076;18.250;2023-04-06T02:33:54;-1.80;99.90
23507;DHT22;11930;53.076;18.250;2023-04-06T02:36:20;-1.80;99.90
23507;DHT22;11930;53.076;18.250;2023-04-06T02:38:46;-1.70;99.90
23507;DHT22;11930;53.076;18.250;2023-04-06T02:41:12;-1.80;99.90
23507;DHT22;11930;53.076;18.250;2023-04-06T02:43:39;-1.80;99.90
23507;DHT22;11930;53.076;18.250;2023-04-06T02:46:15;-1.70;99.90
23507;DHT22;11930;53.076;18.250;2023-04-06T02:48:42;-1.70;99.90
23507;DHT22;11930;53.076;18.250;2023-04-06T02:51:08;-1.70;99.90
23507;DHT22;11930;53.076;18.250;2023-04-06T02:53:35;-1.60;99.90
23507;DHT22;11930;53.076;18.250;2023-04-06T02:56:01;-1.60;99.90
23507;DHT22;11930;53.076;18.250;2023-04-06T02:58:37;-1.60;99.90
23507;DHT22;11930;53.076;18.250;2023-04-06T03:01:03;-1.50;99.90
23507;DHT22;11930;53.076;18.250;2023-04-06T03:03:29;-1.50;99.90
23507;DHT22;11930;53.076;18.250;2023-04-06T03:05:56;-1.50;99.90
23507;DHT22;11930;53.076;18.250;2023-04-06T03:08:27;-1.40;99.90
23507;DHT22;11930;53.076;18.250;2023-04-06T03:10:53;-1.40;99.90
23507;DHT22;11930;53.076;18.250;2023-04-06T03:13:20;-1.40;99.90
23507;DHT22;11930;53.076;18.250;2023-04-06T03:15:50;-1.40;99.90
23507;DHT22;11930;53.076;18.250;2023-04-06T03:18:22;-1.40;99.90
23507;DHT22;11930;53.076;18.250;2023-04-06T03:20:50;-1.30;99.90
23507;DHT22;11930;53.076;18.250;2023-04-06T03:23:19;-1.30;99.90
23507;DHT22;11930;53.076;18.250;2023-04-06T03:25:47;-1.40;99.90
23507;DHT22;11930;53.076;18.250;2023-04-06T03:28:17;-1.30;99.90
23507;DHT22;11930;53.076;18.250;2023-04-06T03:30:53;-1.30;99.90
23507;DHT22;11930;53.076;18.250;2023-04-06T03:33:37;-1.20;99.90
23507;DHT22;11930;53.076;18.250;2023-04-06T03:36:03;-1.20;99.90
23507;DHT22;11930;53.076;18.250;2023-04-06T03:38:33;-1.20;99.90
23507;DHT22;11930;53.076;18.250;2023-04-06T03:41:01;-1.20;99.90
23507;DHT22;11930;53.076;18.250;2023-04-06T03:43:28;-1.20;99.90
23507;DHT22;11930;53.076;18.250;2023-04-06T03:45:54;-1.20;99.90
23507;DHT22;11930;53.076;18.250;2023-04-06T03:48:21;-1.20;99.90
23507;DHT22;11930;53.076;18.250;2023-04-06T03:50:47;-1.20;99.90
23507;DHT22;11930;53.076;18.250;2023-04-06T03:53:13;-1.20;99.90
23507;DHT22;11930;53.076;18.250;2023-04-06T03:55:39;-1.20;99.90
23507;DHT22;11930;53.076;18.250;2023-04-06T03:58:06;-1.20;99.90
23507;DHT22;11930;53.076;18.250;2023-04-06T04:00:32;-1.20;99.90
23507;DHT22;11930;53.076;18.250;2023-04-06T04:02:59;-1.20;99.90
23507;DHT22;11930;53.076;18.250;2023-04-06T04:05:26;-1.20;99.90
23507;DHT22;11930;53.076;18.250;2023-04-06T04:07:52;-1.20;99.90
23507;DHT22;11930;53.076;18.250;2023-04-06T04:10:22;-1.10;99.90
23507;DHT22;11930;53.076;18.250;2023-04-06T04:12:48;-1.20;99.90
23507;DHT22;11930;53.076;18.250;2023-04-06T04:15:14;-1.10;99.90
23507;DHT22;11930;53.076;18.250;2023-04-06T04:17:40;-1.10;99.90
23507;DHT22;11930;53.076;18.250;2023-04-06T04:20:07;-1.10;99.90
23507;DHT22;11930;53.076;18.250;2023-04-06T04:22:34;-1.10;99.90
23507;DHT22;11930;53.076;18.250;2023-04-06T04:25:00;-1.10;99.90
23507;DHT22;11930;53.076;18.250;2023-04-06T04:27:29;-1.00;99.90
23507;DHT22;11930;53.076;18.250;2023-04-06T04:29:55;-1.00;99.90
23507;DHT22;11930;53.076;18.250;2023-04-06T04:32:21;-1.00;99.90
23507;DHT22;11930;53.076;18.250;2023-04-06T04:34:48;-1.00;99.90
23507;DHT22;11930;53.076;18.250;2023-04-06T04:37:29;-0.90;99.90
23507;DHT22;11930;53.076;18.250;2023-04-06T04:39:55;-0.90;99.90
23507;DHT22;11930;53.076;18.250;2023-04-06T04:42:22;-0.90;99.90
23507;DHT22;11930;53.076;18.250;2023-04-06T04:44:51;-0.90;99.90
23507;DHT22;11930;53.076;18.250;2023-04-06T04:47:29;-0.80;99.90
23507;DHT22;11930;53.076;18.250;2023-04-06T04:49:56;-0.80;99.90
23507;DHT22;11930;53.076;18.250;2023-04-06T04:52:25;-0.80;99.90
23507;DHT22;11930;53.076;18.250;2023-04-06T04:55:11;-0.70;99.90
23507;DHT22;11930;53.076;18.250;2023-04-06T04:57:37;-0.70;99.90
23507;DHT22;11930;53.076;18.250;2023-04-06T05:00:05;-0.70;99.90
23507;DHT22;11930;53.076;18.250;2023-04-06T05:02:33;-0.70;99.90
23507;DHT22;11930;53.076;18.250;2023-04-06T05:05:15;-0.70;99.90
23507;DHT22;11930;53.076;18.250;2023-04-06T05:07:42;-0.60;99.90
23507;DHT22;11930;53.076;18.250;2023-04-06T05:10:14;-0.60;99.90
23507;DHT22;11930;53.076;18.250;2023-04-06T05:12:50;-0.50;99.90
23507;DHT22;11930;53.076;18.250;2023-04-06T05:15:16;-0.50;99.90
23507;DHT22;11930;53.076;18.250;2023-04-06T05:17:42;-0.40;99.90
23507;DHT22;11930;53.076;18.250;2023-04-06T05:20:11;-0.40;99.90
23507;DHT22;11930;53.076;18.250;2023-04-06T05:22:45;-0.30;99.90
23507;DHT22;11930;53.076;18.250;2023-04-06T05:25:11;-0.30;99.90
23507;DHT22;11930;53.076;18.250;2023-04-06T05:27:39;-0.20;99.90
23507;DHT22;11930;53.076;18.250;2023-04-06T05:30:13;-0.20;99.90
23507;DHT22;11930;53.076;18.250;2023-04-06T05:32:45;-0.10;99.90
23507;DHT22;11930;53.076;18.250;2023-04-06T05:35:12;0.00;99.90
23507;DHT22;11930;53.076;18.250;2023-04-06T05:37:40;0.10;99.90
23507;DHT22;11930;53.076;18.250;2023-04-06T05:40:07;0.10;99.90
23507;DHT22;11930;53.076;18.250;2023-04-06T05:42:38;0.20;99.90
23507;DHT22;11930;53.076;18.250;2023-04-06T05:45:06;0.30;99.90
23507;DHT22;11930;53.076;18.250;2023-04-06T05:47:32;0.40;99.90
23507;DHT22;11930;53.076;18.250;2023-04-06T05:50:06;0.50;99.90
23507;DHT22;11930;53.076;18.250;2023-04-06T05:52:37;0.50;99.90
23507;DHT22;11930;53.076;18.250;2023-04-06T05:55:04;0.50;99.90
23507;DHT22;11930;53.076;18.250;2023-04-06T05:57:32;0.60;99.90
23507;DHT22;11930;53.076;18.250;2023-04-06T05:59:58;0.70;99.90
23507;DHT22;11930;53.076;18.250;2023-04-06T06:02:30;0.70;99.90
23507;DHT22;11930;53.076;18.250;2023-04-06T06:04:56;0.80;99.90
23507;DHT22;11930;53.076;18.250;2023-04-06T06:07:24;0.90;99.90
23507;DHT22;11930;53.076;18.250;2023-04-06T06:09:58;1.10;99.90
23507;DHT22;11930;53.076;18.250;2023-04-06T06:12:29;1.20;99.90
23507;DHT22;11930;53.076;18.250;2023-04-06T06:14:56;1.30;99.90
23507;DHT22;11930;53.076;18.250;2023-04-06T06:17:24;1.40;99.90
23507;DHT22;11930;53.076;18.250;2023-04-06T06:19:50;1.50;99.90
23507;DHT22;11930;53.076;18.250;2023-04-06T06:22:16;1.60;99.90
23507;DHT22;11930;53.076;18.250;2023-04-06T06:24:45;1.80;99.90
23507;DHT22;11930;53.076;18.250;2023-04-06T06:27:12;1.90;99.90
23507;DHT22;11930;53.076;18.250;2023-04-06T06:29:39;2.00;99.90
23507;DHT22;11930;53.076;18.250;2023-04-06T06:32:05;2.20;99.90
23507;DHT22;11930;53.076;18.250;2023-04-06T06:34:32;2.40;99.90
23507;DHT22;11930;53.076;18.250;2023-04-06T06:37:01;2.50;99.90
23507;DHT22;11930;53.076;18.250;2023-04-06T06:39:28;2.70;99.90
23507;DHT22;11930;53.076;18.250;2023-04-06T06:41:54;2.90;99.90
23507;DHT22;11930;53.076;18.250;2023-04-06T06:44:32;3.00;99.90
23507;DHT22;11930;53.076;18.250;2023-04-06T06:46:59;3.20;99.90
23507;DHT22;11930;53.076;18.250;2023-04-06T06:49:25;3.40;99.90
23507;DHT22;11930;53.076;18.250;2023-04-06T06:51:51;3.60;99.90
23507;DHT22;11930;53.076;18.250;2023-04-06T06:54:21;3.70;99.90
23507;DHT22;11930;53.076;18.250;2023-04-06T06:56:48;4.00;99.90
23507;DHT22;11930;53.076;18.250;2023-04-06T06:59:13;4.10;99.90
23507;DHT22;11930;53.076;18.250;2023-04-06T07:01:42;4.30;99.90
23507;DHT22;11930;53.076;18.250;2023-04-06T07:04:08;4.50;99.90
23507;DHT22;11930;53.076;18.250;2023-04-06T07:06:36;4.70;99.90
23507;DHT22;11930;53.076;18.250;2023-04-06T07:09:02;4.90;99.90
23507;DHT22;11930;53.076;18.250;2023-04-06T07:11:29;5.00;99.90
23507;DHT22;11930;53.076;18.250;2023-04-06T07:13:56;5.20;99.90
23507;DHT22;11930;53.076;18.250;2023-04-06T07:16:22;5.40;99.90
23507;DHT22;11930;53.076;18.250;2023-04-06T07:18:48;5.60;99.90
23507;DHT22;11930;53.076;18.250;2023-04-06T07:21:15;5.70;99.70
23507;DHT22;11930;53.076;18.250;2023-04-06T07:23:41;5.80;96.70
23507;DHT22;11930;53.076;18.250;2023-04-06T07:26:07;5.90;95.00
23507;DHT22;11930;53.076;18.250;2023-04-06T07:28:33;5.90;94.50
23507;DHT22;11930;53.076;18.250;2023-04-06T07:31:01;6.00;93.30
23507;DHT22;11930;53.076;18.250;2023-04-06T07:33:28;6.10;92.90
23507;DHT22;11930;53.076;18.250;2023-04-06T07:35:56;6.20;90.80
23507;DHT22;11930;53.076;18.250;2023-04-06T07:38:24;6.20;89.40
23507;DHT22;11930;53.076;18.250;2023-04-06T07:40:51;6.40;86.40
23507;DHT22;11930;53.076;18.250;2023-04-06T07:43:17;6.60;86.90
23507;DHT22;11930;53.076;18.250;2023-04-06T07:45:44;6.90;83.40
23507;DHT22;11930;53.076;18.250;2023-04-06T07:48:11;7.10;79.90
23507;DHT22;11930;53.076;18.250;2023-04-06T07:50:37;7.30;76.50
23507;DHT22;11930;53.076;18.250;2023-04-06T07:53:05;7.50;74.50
23507;DHT22;11930;53.076;18.250;2023-04-06T07:55:31;7.70;72.70
23507;DHT22;11930;53.076;18.250;2023-04-06T07:57:57;7.90;70.80
23507;DHT22;11930;53.076;18.250;2023-04-06T08:00:27;8.10;66.70
23507;DHT22;11930;53.076;18.250;2023-04-06T08:02:53;8.20;64.30
23507;DHT22;11930;53.076;18.250;2023-04-06T08:05:19;8.20;63.50
23507;DHT22;11930;53.076;18.250;2023-04-06T08:07:45;8.00;64.10
23507;DHT22;11930;53.076;18.250;2023-04-06T08:10:12;7.80;64.00
23507;DHT22;11930;53.076;18.250;2023-04-06T08:12:37;7.50;63.30
23507;DHT22;11930;53.076;18.250;2023-04-06T08:15:04;7.10;61.70
23507;DHT22;11930;53.076;18.250;2023-04-06T08:17:32;6.70;63.40
23507;DHT22;11930;53.076;18.250;2023-04-06T08:19:58;6.40;63.50
23507;DHT22;11930;53.076;18.250;2023-04-06T08:22:24;6.20;63.90
23507;DHT22;11930;53.076;18.250;2023-04-06T08:24:50;6.00;64.60
23507;DHT22;11930;53.076;18.250;2023-04-06T08:27:16;5.90;65.20
23507;DHT22;11930;53.076;18.250;2023-04-06T08:29:43;5.80;66.20
23507;DHT22;11930;53.076;18.250;2023-04-06T08:32:09;5.80;67.00
23507;DHT22;11930;53.076;18.250;2023-04-06T08:34:35;5.80;66.30
23507;DHT22;11930;53.076;18.250;2023-04-06T08:37:02;5.80;66.90
23507;DHT22;11930;53.076;18.250;2023-04-06T08:39:28;5.90;66.90
23507;DHT22;11930;53.076;18.250;2023-04-06T08:41:56;6.00;67.00
23507;DHT22;11930;53.076;18.250;2023-04-06T08:44:24;6.10;66.20
23507;DHT22;11930;53.076;18.250;2023-04-06T08:46:50;6.10;67.10
23507;DHT22;11930;53.076;18.250;2023-04-06T08:49:16;6.10;66.40
23507;DHT22;11930;53.076;18.250;2023-04-06T08:51:43;6.20;67.50
23507;DHT22;11930;53.076;18.250;2023-04-06T08:54:11;6.20;67.80
23507;DHT22;11930;53.076;18.250;2023-04-06T08:56:38;6.20;67.90
23507;DHT22;11930;53.076;18.250;2023-04-06T08:59:06;6.20;68.00
23507;DHT22;11930;53.076;18.250;2023-04-06T09:01:33;6.20;68.30
23507;DHT22;11930;53.076;18.250;2023-04-06T09:04:03;6.10;69.80
23507;DHT22;11930;53.076;18.250;2023-04-06T09:06:34;6.10;69.50
23507;DHT22;11930;53.076;18.250;2023-04-06T09:09:03;6.00;69.00
23507;DHT22;11930;53.076;18.250;2023-04-06T09:11:29;6.00;69.00
23507;DHT22;11930;53.076;18.250;2023-04-06T09:14:06;5.90;70.10
23507;DHT22;11930;53.076;18.250;2023-04-06T09:16:39;5.90;68.90
23507;DHT22;11930;53.076;18.250;2023-04-06T09:19:06;6.00;68.50
23507;DHT22;11930;53.076;18.250;2023-04-06T09:21:32;6.20;67.80
23507;DHT22;11930;53.076;18.250;2023-04-06T09:24:02;6.30;68.40
23507;DHT22;11930;53.076;18.250;2023-04-06T09:26:28;6.50;67.80
23507;DHT22;11930;53.076;18.250;2023-04-06T09:28:56;6.90;66.30
23507;DHT22;11930;53.076;18.250;2023-04-06T09:31:26;7.20;65.10
23507;DHT22;11930;53.076;18.250;2023-04-06T09:33:53;7.60;65.90
23507;DHT22;11930;53.076;18.250;2023-04-06T09:36:29;7.90;64.30
23507;DHT22;11930;53.076;18.250;2023-04-06T09:38:57;8.10;63.60
23507;DHT22;11930;53.076;18.250;2023-04-06T09:41:27;8.20;62.40
23507;DHT22;11930;53.076;18.250;2023-04-06T09:44:12;8.20;62.90
23507;DHT22;11930;53.076;18.250;2023-04-06T09:46:39;8.10;63.00
23507;DHT22;11930;53.076;18.250;2023-04-06T09:49:07;7.90;62.30
23507;DHT22;11930;53.076;18.250;2023-04-06T09:51:41;7.80;62.50
23507;DHT22;11930;53.076;18.250;2023-04-06T09:54:08;7.40;62.90
23507;DHT22;11930;53.076;18.250;2023-04-06T09:59:13;7.10;64.30
23507;DHT22;11930;53.076;18.250;2023-04-06T10:01:41;7.10;64.50
23507;DHT22;11930;53.076;18.250;2023-04-06T10:05:01;7.10;65.00
23507;DHT22;11930;53.076;18.250;2023-04-06T10:07:20;7.10;64.40
23507;DHT22;11930;53.076;18.250;2023-04-06T10:09:50;7.20;65.80
23507;DHT22;11930;53.076;18.250;2023-04-06T10:12:17;7.20;64.90
23507;DHT22;11930;53.076;18.250;2023-04-06T10:14:44;7.30;63.80
23507;DHT22;11930;53.076;18.250;2023-04-06T10:17:10;7.30;63.60
23507;DHT22;11930;53.076;18.250;2023-04-06T10:19:52;7.20;64.30
23507;DHT22;11930;53.076;18.250;2023-04-06T10:25:33;7.30;64.10
23507;DHT22;11930;53.076;18.250;2023-04-06T10:28:06;7.30;64.80
23507;DHT22;11930;53.076;18.250;2023-04-06T10:30:34;7.30;65.10
23507;DHT22;11930;53.076;18.250;2023-04-06T10:33:13;7.20;64.60
23507;DHT22;11930;53.076;18.250;2023-04-06T10:35:39;7.10;65.70
23507;DHT22;11930;53.076;18.250;2023-04-06T10:38:05;7.20;65.60
23507;DHT22;11930;53.076;18.250;2023-04-06T10:40:32;7.30;63.90
23507;DHT22;11930;53.076;18.250;2023-04-06T10:43:18;7.30;63.50
23507;DHT22;11930;53.076;18.250;2023-04-06T10:45:44;7.20;63.80
23507;DHT22;11930;53.076;18.250;2023-04-06T10:48:18;7.30;64.60
23507;DHT22;11930;53.076;18.250;2023-04-06T10:50:47;7.30;64.70
23507;DHT22;11930;53.076;18.250;2023-04-06T10:53:25;7.40;64.20
23507;DHT22;11930;53.076;18.250;2023-04-06T10:55:56;7.40;63.70
23507;DHT22;11930;53.076;18.250;2023-04-06T10:58:26;7.30;63.60
23507;DHT22;11930;53.076;18.250;2023-04-06T11:00:54;7.30;64.70
23507;DHT22;11930;53.076;18.250;2023-04-06T11:03:21;7.30;64.60
23507;DHT22;11930;53.076;18.250;2023-04-06T11:05:49;7.20;64.40
23507;DHT22;11930;53.076;18.250;2023-04-06T11:08:32;7.10;64.20
23507;DHT22;11930;53.076;18.250;2023-04-06T11:11:13;7.20;65.30
23507;DHT22;11930;53.076;18.250;2023-04-06T11:16:21;7.30;64.80
23507;DHT22;11930;53.076;18.250;2023-04-06T11:18:51;7.40;64.90
23507;DHT22;11930;53.076;18.250;2023-04-06T11:21:19;7.50;64.60
23507;DHT22;11930;53.076;18.250;2023-04-06T11:23:46;7.60;64.30
23507;DHT22;11930;53.076;18.250;2023-04-06T11:26:13;7.70;63.90
23507;DHT22;11930;53.076;18.250;2023-04-06T11:28:41;7.70;64.50
23507;DHT22;11930;53.076;18.250;2023-04-06T11:31:11;7.60;64.60
23507;DHT22;11930;53.076;18.250;2023-04-06T11:33:38;7.60;64.50
23507;DHT22;11930;53.076;18.250;2023-04-06T11:36:05;7.80;65.40
23507;DHT22;11930;53.076;18.250;2023-04-06T11:38:31;7.80;62.90
23507;DHT22;11930;53.076;18.250;2023-04-06T11:40:58;7.90;63.90
23507;DHT22;11930;53.076;18.250;2023-04-06T11:43:30;7.90;62.90
23507;DHT22;11930;53.076;18.250;2023-04-06T11:46:01;8.00;62.40
23507;DHT22;11930;53.076;18.250;2023-04-06T11:48:31;8.00;63.80
23507;DHT22;11930;53.076;18.250;2023-04-06T11:50:58;8.10;63.00
23507;DHT22;11930;53.076;18.250;2023-04-06T11:53:30;8.00;62.20
23507;DHT22;11930;53.076;18.250;2023-04-06T11:55:57;8.00;62.60
23507;DHT22;11930;53.076;18.250;2023-04-06T11:58:23;7.90;62.80
23507;DHT22;11930;53.076;18.250;2023-04-06T12:00:49;7.90;64.10
23507;DHT22;11930;53.076;18.250;2023-04-06T12:03:15;8.00;64.30
23507;DHT22;11930;53.076;18.250;2023-04-06T12:05:42;8.00;63.50
23507;DHT22;11930;53.076;18.250;2023-04-06T12:08:08;8.00;63.10
23507;DHT22;11930;53.076;18.250;2023-04-06T12:10:34;8.10;63.40
23507;DHT22;11930;53.076;18.250;2023-04-06T12:13:00;8.10;64.10
23507;DHT22;11930;53.076;18.250;2023-04-06T12:15:26;8.00;63.10
23507;DHT22;11930;53.076;18.250;2023-04-06T12:17:52;8.00;63.10
23507;DHT22;11930;53.076;18.250;2023-04-06T12:20:18;8.00;63.40
23507;DHT22;11930;53.076;18.250;2023-04-06T12:22:44;8.10;64.30
23507;DHT22;11930;53.076;18.250;2023-04-06T12:25:11;8.00;63.30
23507;DHT22;11930;53.076;18.250;2023-04-06T12:27:37;8.00;63.50
23507;DHT22;11930;53.076;18.250;2023-04-06T12:30:04;7.90;63.70
23507;DHT22;11930;53.076;18.250;2023-04-06T12:32:31;7.90;64.70
23507;DHT22;11930;53.076;18.250;2023-04-06T12:34:57;7.90;64.40
23507;DHT22;11930;53.076;18.250;2023-04-06T12:37:23;7.90;63.20
23507;DHT22;11930;53.076;18.250;2023-04-06T12:39:49;7.80;62.60
23507;DHT22;11930;53.076;18.250;2023-04-06T12:42:15;7.90;62.10
23507;DHT22;11930;53.076;18.250;2023-04-06T12:44:41;8.00;64.00
23507;DHT22;11930;53.076;18.250;2023-04-06T12:47:08;8.00;64.50
23507;DHT22;11930;53.076;18.250;2023-04-06T12:49:34;8.20;62.50
23507;DHT22;11930;53.076;18.250;2023-04-06T12:52:02;8.20;61.90
23507;DHT22;11930;53.076;18.250;2023-04-06T12:54:28;8.30;60.70
23507;DHT22;11930;53.076;18.250;2023-04-06T12:56:54;8.40;61.60
23507;DHT22;11930;53.076;18.250;2023-04-06T12:59:22;8.40;61.60
23507;DHT22;11930;53.076;18.250;2023-04-06T13:01:50;8.30;62.30
23507;DHT22;11930;53.076;18.250;2023-04-06T13:04:17;8.20;62.50
23507;DHT22;11930;53.076;18.250;2023-04-06T13:06:43;8.10;63.30
23507;DHT22;11930;53.076;18.250;2023-04-06T13:09:09;8.10;64.40
23507;DHT22;11930;53.076;18.250;2023-04-06T13:11:35;8.00;64.30
23507;DHT22;11930;53.076;18.250;2023-04-06T13:14:02;8.10;64.10
23507;DHT22;11930;53.076;18.250;2023-04-06T13:16:28;8.10;64.80
23507;DHT22;11930;53.076;18.250;2023-04-06T13:18:55;8.10;64.40
23507;DHT22;11930;53.076;18.250;2023-04-06T13:21:21;8.10;65.50
23507;DHT22;11930;53.076;18.250;2023-04-06T13:23:48;8.10;65.70
23507;DHT22;11930;53.076;18.250;2023-04-06T13:26:14;8.00;66.40
23507;DHT22;11930;53.076;18.250;2023-04-06T13:28:42;7.90;66.30
23507;DHT22;11930;53.076;18.250;2023-04-06T13:31:08;7.90;65.70
23507;DHT22;11930;53.076;18.250;2023-04-06T13:33:35;7.90;65.20
23507;DHT22;11930;53.076;18.250;2023-04-06T13:36:02;7.80;66.40
23507;DHT22;11930;53.076;18.250;2023-04-06T13:38:29;7.80;66.20
23507;DHT22;11930;53.076;18.250;2023-04-06T13:40:55;7.80;67.20
23507;DHT22;11930;53.076;18.250;2023-04-06T13:43:22;7.90;67.70
23507;DHT22;11930;53.076;18.250;2023-04-06T13:45:52;7.90;67.70
23507;DHT22;11930;53.076;18.250;2023-04-06T13:48:19;7.80;68.80
23507;DHT22;11930;53.076;18.250;2023-04-06T13:50:46;7.90;68.80
23507;DHT22;11930;53.076;18.250;2023-04-06T13:53:12;7.90;69.10
23507;DHT22;11930;53.076;18.250;2023-04-06T13:55:38;7.80;69.20
23507;DHT22;11930;53.076;18.250;2023-04-06T13:58:05;7.80;69.20
23507;DHT22;11930;53.076;18.250;2023-04-06T14:00:31;7.80;69.20
23507;DHT22;11930;53.076;18.250;2023-04-06T14:02:57;7.80;69.70
23507;DHT22;11930;53.076;18.250;2023-04-06T14:05:23;7.80;69.20
23507;DHT22;11930;53.076;18.250;2023-04-06T14:07:50;7.90;70.00
23507;DHT22;11930;53.076;18.250;2023-04-06T14:10:16;7.90;69.10
23507;DHT22;11930;53.076;18.250;2023-04-06T14:12:43;8.00;69.80
23507;DHT22;11930;53.076;18.250;2023-04-06T14:15:12;8.00;70.60
23507;DHT22;11930;53.076;18.250;2023-04-06T14:17:38;8.00;70.00
23507;DHT22;11930;53.076;18.250;2023-04-06T14:20:05;8.10;69.70
23507;DHT22;11930;53.076;18.250;2023-04-06T14:22:32;8.10;70.00
23507;DHT22;11930;53.076;18.250;2023-04-06T14:24:58;8.00;70.20
23507;DHT22;11930;53.076;18.250;2023-04-06T14:27:25;7.90;70.60
23507;DHT22;11930;53.076;18.250;2023-04-06T14:29:51;7.90;70.60
23507;DHT22;11930;53.076;18.250;2023-04-06T14:32:19;7.80;71.10
23507;DHT22;11930;53.076;18.250;2023-04-06T14:34:46;7.70;72.40
23507;DHT22;11930;53.076;18.250;2023-04-06T14:37:12;7.60;73.40
23507;DHT22;11930;53.076;18.250;2023-04-06T14:39:38;7.50;73.10
23507;DHT22;11930;53.076;18.250;2023-04-06T14:42:05;7.40;73.90
23507;DHT22;11930;53.076;18.250;2023-04-06T14:44:33;7.30;74.30
23507;DHT22;11930;53.076;18.250;2023-04-06T14:46:59;7.30;73.00
23507;DHT22;11930;53.076;18.250;2023-04-06T14:49:25;7.30;72.80
23507;DHT22;11930;53.076;18.250;2023-04-06T14:51:51;7.30;73.70
23507;DHT22;11930;53.076;18.250;2023-04-06T14:54:17;7.40;73.10
23507;DHT22;11930;53.076;18.250;2023-04-06T14:56:44;7.40;73.50
23507;DHT22;11930;53.076;18.250;2023-04-06T14:59:10;7.50;72.20
23507;DHT22;11930;53.076;18.250;2023-04-06T15:01:37;7.50;71.90
23507;DHT22;11930;53.076;18.250;2023-04-06T15:04:03;7.50;72.40
23507;DHT22;11930;53.076;18.250;2023-04-06T15:06:30;7.50;72.60
23507;DHT22;11930;53.076;18.250;2023-04-06T15:11:23;7.30;73.20
23507;DHT22;11930;53.076;18.250;2023-04-06T15:13:49;7.30;74.60
23507;DHT22;11930;53.076;18.250;2023-04-06T15:16:15;7.30;74.00
23507;DHT22;11930;53.076;18.250;2023-04-06T15:18:41;7.20;73.80
23507;DHT22;11930;53.076;18.250;2023-04-06T15:21:08;7.20;74.70
23507;DHT22;11930;53.076;18.250;2023-04-06T15:23:34;7.20;73.90
23507;DHT22;11930;53.076;18.250;2023-04-06T15:26:01;7.20;73.40
23507;DHT22;11930;53.076;18.250;2023-04-06T15:28:27;7.20;74.60
23507;DHT22;11930;53.076;18.250;2023-04-06T15:30:54;7.00;75.20
23507;DHT22;11930;53.076;18.250;2023-04-06T15:33:21;7.00;75.90
23507;DHT22;11930;53.076;18.250;2023-04-06T15:35:48;6.90;77.30
23507;DHT22;11930;53.076;18.250;2023-04-06T15:38:14;6.80;77.70
23507;DHT22;11930;53.076;18.250;2023-04-06T15:40:48;6.80;77.90
23507;DHT22;11930;53.076;18.250;2023-04-06T15:43:14;6.70;79.00